Time;durP1;ratioP1;P1;durP2;ratioP2;P2;SDS_P1;SDS_P2;PMS_P1;PMS_P2;Temp;Humidity;BMP_temperature;BMP_pressure;BME280_temperature;BME280_humidity;BME280_pressure;Samples;Min_cycle;Max_cycle;Signal;HPM_P1;HPM_P2
2022/11/04 00:00:01;;;;;;;;;;;;;;;;;;353991;28;974;-69
2022/11/04 00:00:12;;;;;;;;;;;;;;;;;;354102;28;899;-68
2022/11/04 00:00:23;;;;;;;;;;;;;;;;;;354049;28;806;-69
2022/11/04 00:00:33;;;;;;;;;;;;;;;;;;354058;28;1779;-69
2022/11/04 00:00:43;;;;;;;;;;;;;;;;;;354115;28;797;-69
2022/11/04 00:00:53;;;;;;;;;;;;;;;;;;354084;28;932;-68
2022/11/04 00:01:04;;;;;;;;;;;;;;;;;;354047;28;920;-68
2022/11/04 00:01:14;;;;;;;;;;;;;;;;;;354136;28;790;-68
2022/11/04 00:01:25;;;;;;;;;;;;;;;;;;354076;28;1074;-69
2022/11/04 00:01:40;;;;;;;;;;;;;;;;;;354083;28;983;-69
2022/11/04 00:01:50;;;;;;;;;;;;;;;;;;354094;28;987;-69
2022/11/04 00:02:01;;;;;;;;;;;;;;;;;;354067;28;853;-68
2022/11/04 00:02:11;;;;;;;;;;;;;;;;;;354054;28;882;-68
2022/11/04 00:02:22;;;;;;;;;;;;;;;;;;353619;27;1628;-69
2022/11/04 00:02:32;;;;;;;;;;;;;;;;;;355335;27;1031;-69
2022/11/04 00:02:42;;;;;;;;;;;;;;;;;;355567;27;975;-69
2022/11/04 00:02:52;;;;;;;;;;;;;;;;;;355533;27;964;-69
2022/11/04 00:03:02;;;;;;;;;;;;;;;;;;355411;27;943;-68
2022/11/04 00:03:13;;;;;;;;;;;;;;;;;;355536;27;805;-68
2022/11/04 00:03:23;;;;;;;;;;;;;;;;;;355561;27;794;-69
2022/11/04 00:03:33;;;;;;;;;;;;;;;;;;355450;27;845;-69
2022/11/04 00:03:43;;;;;;;;;;;;;;;;;;355541;27;976;-68
2022/11/04 00:03:53;;;;;;;;;;;;;;;;;;355574;27;782;-68
2022/11/04 00:04:04;;;;;;;;;;;;;;;;;;355373;27;916;-68
2022/11/04 00:04:15;;;;;;;;;;;;;;;;;;355516;27;861;-69
2022/11/04 00:04:26;;;;;;;;;;;;;;;;;;354301;27;1332;-68
2022/11/04 00:04:36;;;;;;;;;;;;;;;;;;355514;27;900;-68
2022/11/04 00:04:47;;;;;;;;;;;;;;;;;;355507;27;893;-68
2022/11/04 00:04:57;;;;;;;;;;;;;;;;;;355543;27;971;-68
2022/11/04 00:05:07;;;;;;;;;;;;;;;;;;355471;27;840;-69
2022/11/04 00:05:18;;;;;;;;;;;;;;;;;;355546;27;895;-69
2022/11/04 00:05:28;;;;;;;;;;;;;;;;;;355515;27;975;-68
2022/11/04 00:05:38;;;;;;;;;;;;;;;;;;355454;27;960;-69
2022/11/04 00:05:48;;;;;;;;;;;;;;;;;;355446;27;1960;-69
2022/11/04 00:06:01;;;;;;;;;;;;;;;;;;355519;27;974;-69
2022/11/04 00:06:12;;;;;;;;;;;;;;;;;;355403;27;1083;-68
2022/11/04 00:06:22;;;;;;;;;;;;;;;;;;355487;27;1039;-69
2022/11/04 00:06:32;;;;;;;;;;;;;;;;;;355488;27;956;-69
2022/11/04 00:06:42;;;;;;;;;;;;;;;;;;355538;27;975;-69
2022/11/04 00:06:53;;;;;;;;;;;;;;;;;;355565;27;797;-69
2022/11/04 00:08:22;;;;;;;;;;;;;;;;;;355515;27;1055;-69
2022/11/04 00:08:31;;;;;;;;;;;;;;;;;;355686;27;1200;-68
2022/11/04 00:08:41;;;;;;;;;;;;;;;;;;355810;27;845;-69
2022/11/04 00:08:52;;;;;;;;;;;;;;;;;;355770;27;904;-68
2022/11/04 00:09:03;;;;;;;;;;;;;;;;;;355803;27;940;-69
2022/11/04 00:09:17;;;;;;;;;;;;;;;;;;355663;27;1353;-69
2022/11/04 00:09:29;;;;;;;;;;;;;;;;;;355755;27;1002;-68
2022/11/04 00:09:39;;;;;;;;;;;;;;;;;;355760;27;912;-68
2022/11/04 00:09:49;;;;;;;;;;;;;;;;;;355760;27;1024;-69
2022/11/04 00:09:59;;;;;;;;;;;;;;;;;;355813;27;888;-68
2022/11/04 00:10:09;;;;;;;;;;;;;;;;;;355819;27;971;-69
2022/11/04 00:12:23;;;;;;;;;;;;;;;;;;355700;27;912;-68
2022/11/04 00:12:24;;;;;;;;;;;;;;;;;;354766;27;1224;-69
2022/11/04 00:12:34;;;;;;;;;;;;;;;;;;355805;27;928;-69
2022/11/04 00:12:44;;;;;;;;;;;;;;;;;;355839;27;788;-69
2022/11/04 00:12:54;;;;;;;;;;;;;;;;;;355816;27;928;-69
2022/11/04 00:13:04;;;;;;;;;;;;;;;;;;355805;27;925;-68
2022/11/04 00:13:15;;;;;;;;;;;;;;;;;;355654;27;777;-69
2022/11/04 00:13:27;;;;;;;;;;;;;;;;;;355796;27;923;-69
2022/11/04 00:13:37;;;;;;;;;;;;;;;;;;355793;27;963;-69
2022/11/04 00:13:47;;;;;;;;;;;;;;;;;;355809;27;903;-69
2022/11/04 00:13:58;;;;;;;;;;;;;;;;;;355815;27;892;-68
2022/11/04 00:14:09;;;;;;;;;;;;;;;;;;355711;27;909;-68
2022/11/04 00:14:19;;;;;;;;;;;;;;;;;;355803;27;868;-68
2022/11/04 00:14:29;;;;;;;;;;;;;;;;;;355724;27;1007;-69
2022/11/04 00:14:40;;;;;;;;;;;;;;;;;;355799;27;978;-69
2022/11/04 00:14:50;;;;;;;;;;;;;;;;;;355779;27;923;-69
2022/11/04 00:17:18;;;;;;;;;;;;;;;;;;355701;27;1074;-69
2022/11/04 00:17:21;;;;;;;;;;;;;;;;;;355734;27;983;-69
2022/11/04 00:17:31;;;;;;;;;;;;;;;;;;355740;27;944;-69
2022/11/04 00:17:41;;;;;;;;;;;;;;;;;;355778;27;990;-69
2022/11/04 00:17:51;;;;;;;;;;;;;;;;;;355746;27;963;-69
2022/11/04 00:18:01;;;;;;;;;;;;;;;;;;355779;27;817;-69
2022/11/04 00:18:11;;;;;;;;;;;;;;;;;;355784;27;917;-69
2022/11/04 00:18:22;;;;;;;;;;;;;;;;;;355733;27;988;-69
2022/11/04 00:18:34;;;;;;;;;;;;;;;;;;355780;27;983;-69
2022/11/04 00:18:44;;;;;;;;;;;;;;;;;;355714;27;959;-68
2022/11/04 00:18:54;;;;;;;;;;;;;;;;;;355766;27;877;-68
2022/11/04 00:19:05;;;;;;;;;;;;;;;;;;355777;27;948;-68
2022/11/04 00:19:15;;;;;;;;;;;;;;;;;;355756;27;1019;-69
2022/11/04 00:19:26;;;;;;;;;;;;;;;;;;355742;27;779;-69
2022/11/04 00:28:51;;;;;;;;;;;;;;;;;;354345;27;988;-68
2022/11/04 00:29:01;;;;;;;;;;;;;;;;;;354213;27;1011;-68
2022/11/04 00:29:12;;;;;;;;;;;;;;;;;;354325;27;940;-68
2022/11/04 00:29:22;;;;;;;;;;;;;;;;;;354342;27;949;-68
2022/11/04 00:29:32;;;;;;;;;;;;;;;;;;354285;27;940;-69
2022/11/04 00:29:43;;;;;;;;;;;;;;;;;;354331;27;814;-68
2022/11/04 00:29:53;;;;;;;;;;;;;;;;;;354357;27;929;-68
2022/11/04 00:30:04;;;;;;;;;;;;;;;;;;353941;27;1561;-68
2022/11/04 00:30:15;;;;;;;;;;;;;;;;;;354241;27;968;-68
2022/11/04 00:30:25;;;;;;;;;;;;;;;;;;354308;27;1003;-68
2022/11/04 00:30:35;;;;;;;;;;;;;;;;;;354342;27;860;-68
2022/11/04 00:30:45;;;;;;;;;;;;;;;;;;354341;27;889;-68
2022/11/04 00:30:56;;;;;;;;;;;;;;;;;;354316;27;924;-69
2022/11/04 00:33:31;;;;;;;;;;;;;;;;;;354357;27;807;-68
2022/11/04 00:33:41;;;;;;;;;;;;;;;;;;354268;27;953;-68
2022/11/04 00:33:53;;;;;;;;;;;;;;;;;;354325;27;971;-68
2022/11/04 00:34:03;;;;;;;;;;;;;;;;;;354306;27;905;-68
2022/11/04 00:34:13;;;;;;;;;;;;;;;;;;354219;27;826;-68
2022/11/04 00:34:23;;;;;;;;;;;;;;;;;;354327;27;904;-69
2022/11/04 00:34:34;;;;;;;;;;;;;;;;;;354360;27;896;-69
2022/11/04 00:34:44;;;;;;;;;;;;;;;;;;354278;27;905;-68
2022/11/04 00:34:54;;;;;;;;;;;;;;;;;;354290;27;1149;-68
2022/11/04 00:35:04;;;;;;;;;;;;;;;;;;354334;27;928;-68
2022/11/04 00:35:14;;;;;;;;;;;;;;;;;;354265;27;924;-69
2022/11/04 00:35:25;;;;;;;;;;;;;;;;;;354311;27;837;-68
2022/11/04 00:35:35;;;;;;;;;;;;;;;;;;354305;27;979;-68
2022/11/04 00:35:49;;;;;;;;;;;;;;;;;;354240;27;1004;-69
2022/11/04 00:35:59;;;;;;;;;;;;;;;;;;354373;27;916;-69
2022/11/04 00:36:09;;;;;;;;;;;;;;;;;;354359;27;781;-68
2022/11/04 00:36:20;;;;;;;;;;;;;;;;;;354279;27;854;-69
2022/11/04 00:36:30;;;;;;;;;;;;;;;;;;354331;27;1015;-68
2022/11/04 00:36:40;;;;;;;;;;;;;;;;;;354319;27;853;-68
2022/11/04 00:36:50;;;;;;;;;;;;;;;;;;354257;27;896;-68
2022/11/04 00:37:01;;;;;;;;;;;;;;;;;;354304;27;888;-69
2022/11/04 00:37:12;;;;;;;;;;;;;;;;;;354315;27;999;-68
2022/11/04 00:37:22;;;;;;;;;;;;;;;;;;354324;27;928;-69
2022/11/04 00:37:35;;;;;;;;;;;;;;;;;;354313;27;940;-69
2022/11/04 00:37:45;;;;;;;;;;;;;;;;;;354336;27;773;-68
2022/11/04 00:37:55;;;;;;;;;;;;;;;;;;354162;27;1197;-69
2022/11/04 00:38:05;;;;;;;;;;;;;;;;;;354340;27;916;-68
2022/11/04 00:38:16;;;;;;;;;;;;;;;;;;354304;27;916;-68
2022/11/04 00:38:26;;;;;;;;;;;;;;;;;;354356;27;900;-68
2022/11/04 00:38:36;;;;;;;;;;;;;;;;;;354355;27;974;-68
2022/11/04 00:38:47;;;;;;;;;;;;;;;;;;354257;27;920;-69
2022/11/04 00:38:57;;;;;;;;;;;;;;;;;;354334;27;928;-68
2022/11/04 00:39:07;;;;;;;;;;;;;;;;;;354299;27;1100;-68
2022/11/04 00:39:17;;;;;;;;;;;;;;;;;;354316;27;908;-68
2022/11/04 00:39:28;;;;;;;;;;;;;;;;;;354252;27;1189;-68
2022/11/04 00:39:38;;;;;;;;;;;;;;;;;;354307;27;821;-69
2022/11/04 00:39:48;;;;;;;;;;;;;;;;;;354300;27;956;-68
2022/11/04 00:39:59;;;;;;;;;;;;;;;;;;354377;27;777;-68
2022/11/04 00:40:10;;;;;;;;;;;;;;;;;;354310;27;909;-68
2022/11/04 00:40:20;;;;;;;;;;;;;;;;;;354310;27;864;-68
2022/11/04 00:40:31;;;;;;;;;;;;;;;;;;354331;27;967;-68
2022/11/04 00:40:41;;;;;;;;;;;;;;;;;;354316;27;912;-68
2022/11/04 00:40:51;;;;;;;;;;;;;;;;;;354270;27;770;-69
2022/11/04 00:41:01;;;;;;;;;;;;;;;;;;354321;27;924;-68
2022/11/04 00:41:28;;;;;;;;;;;;;;;;;;354295;27;852;-68
2022/11/04 00:41:38;;;;;;;;;;;;;;;;;;354335;27;983;-68
2022/11/04 00:41:49;;;;;;;;;;;;;;;;;;354282;27;857;-68
2022/11/04 00:41:59;;;;;;;;;;;;;;;;;;354265;27;967;-69
2022/11/04 00:42:09;;;;;;;;;;;;;;;;;;354339;27;1010;-68
2022/11/04 00:42:19;;;;;;;;;;;;;;;;;;354323;27;979;-68
2022/11/04 00:42:29;;;;;;;;;;;;;;;;;;354345;27;809;-68
2022/11/04 00:42:42;;;;;;;;;;;;;;;;;;354359;27;852;-69
2022/11/04 00:42:52;;;;;;;;;;;;;;;;;;354255;27;976;-68
2022/11/04 00:43:02;;;;;;;;;;;;;;;;;;354316;27;833;-68
2022/11/04 00:43:13;;;;;;;;;;;;;;;;;;354318;27;916;-68
2022/11/04 00:43:23;;;;;;;;;;;;;;;;;;354375;27;782;-68
2022/11/04 00:43:33;;;;;;;;;;;;;;;;;;354320;27;912;-69
2022/11/04 00:43:43;;;;;;;;;;;;;;;;;;353719;27;1696;-69
2022/11/04 00:43:54;;;;;;;;;;;;;;;;;;354261;27;774;-69
2022/11/04 00:44:05;;;;;;;;;;;;;;;;;;354337;27;805;-68
2022/11/04 00:44:15;;;;;;;;;;;;;;;;;;354332;27;932;-68
2022/11/04 00:44:25;;;;;;;;;;;;;;;;;;354350;27;829;-68
2022/11/04 00:44:35;;;;;;;;;;;;;;;;;;354318;27;995;-68
2022/11/04 00:44:45;;;;;;;;;;;;;;;;;;354357;27;987;-68
2022/11/04 00:44:56;;;;;;;;;;;;;;;;;;354297;27;979;-68
2022/11/04 00:45:06;;;;;;;;;;;;;;;;;;354307;27;1086;-69
2022/11/04 00:45:16;;;;;;;;;;;;;;;;;;354376;27;960;-68
2022/11/04 00:45:26;;;;;;;;;;;;;;;;;;354251;27;944;-69
2022/11/04 00:45:37;;;;;;;;;;;;;;;;;;354008;27;1525;-68
2022/11/04 00:45:47;;;;;;;;;;;;;;;;;;354221;27;941;-68
2022/11/04 00:45:57;;;;;;;;;;;;;;;;;;354251;27;1906;-68
2022/11/04 00:46:08;;;;;;;;;;;;;;;;;;354331;27;849;-68
2022/11/04 00:46:18;;;;;;;;;;;;;;;;;;354255;27;1131;-69
2022/11/04 00:46:29;;;;;;;;;;;;;;;;;;354359;27;920;-68
2022/11/04 00:46:39;;;;;;;;;;;;;;;;;;354393;27;781;-68
2022/11/04 00:46:49;;;;;;;;;;;;;;;;;;354299;27;905;-68
2022/11/04 00:47:00;;;;;;;;;;;;;;;;;;354269;27;872;-69
2022/11/04 00:47:10;;;;;;;;;;;;;;;;;;354244;27;821;-69
2022/11/04 00:47:21;;;;;;;;;;;;;;;;;;354339;27;845;-68
2022/11/04 00:47:31;;;;;;;;;;;;;;;;;;354296;27;928;-68
2022/11/04 00:47:41;;;;;;;;;;;;;;;;;;354310;27;936;-68
2022/11/04 00:47:51;;;;;;;;;;;;;;;;;;354050;27;1020;-68
2022/11/04 00:48:02;;;;;;;;;;;;;;;;;;354258;27;849;-69
2022/11/04 00:48:12;;;;;;;;;;;;;;;;;;354327;27;1011;-69
2022/11/04 00:48:22;;;;;;;;;;;;;;;;;;354329;27;877;-69
2022/11/04 00:48:32;;;;;;;;;;;;;;;;;;354352;27;785;-69
2022/11/04 00:48:43;;;;;;;;;;;;;;;;;;354270;27;916;-69
2022/11/04 00:48:53;;;;;;;;;;;;;;;;;;354223;27;1044;-68
2022/11/04 00:49:03;;;;;;;;;;;;;;;;;;354306;27;1017;-69
2022/11/04 00:49:13;;;;;;;;;;;;;;;;;;354258;27;995;-69
2022/11/04 00:49:23;;;;;;;;;;;;;;;;;;354322;27;797;-68
2022/11/04 00:49:34;;;;;;;;;;;;;;;;;;354240;27;979;-69
2022/11/04 00:49:44;;;;;;;;;;;;;;;;;;354286;27;1040;-69
2022/11/04 00:49:54;;;;;;;;;;;;;;;;;;354285;27;823;-69
2022/11/04 00:50:05;;;;;;;;;;;;;;;;;;354262;27;940;-69
2022/11/04 00:50:15;;;;;;;;;;;;;;;;;;353488;27;1170;-69
2022/11/04 00:50:25;;;;;;;;;;;;;;;;;;354309;27;849;-69
2022/11/04 00:50:35;;;;;;;;;;;;;;;;;;354274;27;920;-69
2022/11/04 00:50:45;;;;;;;;;;;;;;;;;;354359;27;1060;-69
2022/11/04 00:50:56;;;;;;;;;;;;;;;;;;353712;27;2007;-69
2022/11/04 00:51:06;;;;;;;;;;;;;;;;;;354214;27;977;-68
2022/11/04 00:51:17;;;;;;;;;;;;;;;;;;354320;27;915;-68
2022/11/04 00:51:27;;;;;;;;;;;;;;;;;;354304;27;923;-68
2022/11/04 00:51:37;;;;;;;;;;;;;;;;;;354296;27;924;-69
2022/11/04 00:51:47;;;;;;;;;;;;;;;;;;354274;27;948;-68
2022/11/04 00:51:57;;;;;;;;;;;;;;;;;;354266;27;932;-68
2022/11/04 00:52:08;;;;;;;;;;;;;;;;;;354227;27;798;-69
2022/11/04 00:52:18;;;;;;;;;;;;;;;;;;354262;27;889;-68
2022/11/04 00:52:28;;;;;;;;;;;;;;;;;;354315;27;955;-68
2022/11/04 00:52:38;;;;;;;;;;;;;;;;;;354255;27;1083;-68
2022/11/04 00:52:48;;;;;;;;;;;;;;;;;;353797;27;1944;-69
2022/11/04 00:52:59;;;;;;;;;;;;;;;;;;354203;27;971;-69
2022/11/04 00:53:09;;;;;;;;;;;;;;;;;;354262;27;913;-69
2022/11/04 00:53:20;;;;;;;;;;;;;;;;;;354298;27;924;-68
2022/11/04 00:53:30;;;;;;;;;;;;;;;;;;354327;27;925;-69
2022/11/04 00:53:40;;;;;;;;;;;;;;;;;;354345;27;829;-69
2022/11/04 00:53:50;;;;;;;;;;;;;;;;;;354246;27;853;-69
2022/11/04 00:54:00;;;;;;;;;;;;;;;;;;354298;27;877;-69
2022/11/04 00:54:11;;;;;;;;;;;;;;;;;;354237;27;901;-69
2022/11/04 00:54:21;;;;;;;;;;;;;;;;;;354297;27;987;-68
2022/11/04 00:54:31;;;;;;;;;;;;;;;;;;354281;27;933;-68
2022/11/04 00:54:41;;;;;;;;;;;;;;;;;;354223;27;1006;-68
2022/11/04 00:54:51;;;;;;;;;;;;;;;;;;354314;27;905;-69
2022/11/04 00:55:02;;;;;;;;;;;;;;;;;;354273;27;909;-68
2022/11/04 00:55:12;;;;;;;;;;;;;;;;;;354272;27;1002;-69
2022/11/04 00:55:23;;;;;;;;;;;;;;;;;;354322;27;810;-68
2022/11/04 00:55:33;;;;;;;;;;;;;;;;;;353775;27;1569;-68
2022/11/04 00:55:43;;;;;;;;;;;;;;;;;;355658;27;998;-68
2022/11/04 00:55:57;;;;;;;;;;;;;;;;;;355721;27;865;-68
2022/11/04 00:56:08;;;;;;;;;;;;;;;;;;355660;27;773;-69
2022/11/04 00:56:18;;;;;;;;;;;;;;;;;;355727;27;912;-68
2022/11/04 00:56:28;;;;;;;;;;;;;;;;;;355685;27;905;-69
2022/11/04 00:56:39;;;;;;;;;;;;;;;;;;355723;27;1003;-68
2022/11/04 00:56:49;;;;;;;;;;;;;;;;;;355733;27;979;-68
2022/11/04 00:56:59;;;;;;;;;;;;;;;;;;355535;27;1150;-68
2022/11/04 00:57:10;;;;;;;;;;;;;;;;;;355724;27;861;-68
2022/11/04 00:57:20;;;;;;;;;;;;;;;;;;355698;27;848;-69
2022/11/04 00:57:30;;;;;;;;;;;;;;;;;;355701;27;936;-69
2022/11/04 00:57:41;;;;;;;;;;;;;;;;;;355750;27;900;-68
2022/11/04 00:57:51;;;;;;;;;;;;;;;;;;355719;27;1007;-68
2022/11/04 00:58:01;;;;;;;;;;;;;;;;;;355700;27;991;-68
2022/11/04 00:58:11;;;;;;;;;;;;;;;;;;355603;27;924;-68
2022/11/04 00:58:21;;;;;;;;;;;;;;;;;;355743;27;954;-68
2022/11/04 00:58:32;;;;;;;;;;;;;;;;;;355738;27;904;-69
2022/11/04 00:58:42;;;;;;;;;;;;;;;;;;355770;27;855;-68
2022/11/04 00:58:52;;;;;;;;;;;;;;;;;;355742;27;915;-68
2022/11/04 00:59:03;;;;;;;;;;;;;;;;;;355674;27;943;-68
2022/11/04 00:59:13;;;;;;;;;;;;;;;;;;355668;27;947;-68
2022/11/04 00:59:23;;;;;;;;;;;;;;;;;;355723;27;1014;-68
2022/11/04 00:59:34;;;;;;;;;;;;;;;;;;355513;27;1136;-68
2022/11/04 00:59:44;;;;;;;;;;;;;;;;;;355707;27;968;-68
2022/11/04 00:59:54;;;;;;;;;;;;;;;;;;355749;27;954;-68
2022/11/04 01:00:05;;;;;;;;;;;;;;;;;;355688;27;943;-69
2022/11/04 01:00:16;;;;;;;;;;;;;;;;;;355594;27;951;-69
2022/11/04 01:00:26;;;;;;;;;;;;;;;;;;355751;27;785;-68
2022/11/04 01:00:36;;;;;;;;;;;;;;;;;;355716;27;896;-68
2022/11/04 01:00:46;;;;;;;;;;;;;;;;;;355675;27;1018;-69
2022/11/04 01:00:57;;;;;;;;;;;;;;;;;;355713;27;907;-69
2022/11/04 01:01:10;;;;;;;;;;;;;;;;;;355689;27;769;-68
2022/11/04 01:01:21;;;;;;;;;;;;;;;;;;355679;27;916;-69
2022/11/04 01:01:31;;;;;;;;;;;;;;;;;;355714;27;999;-69
2022/11/04 01:01:41;;;;;;;;;;;;;;;;;;355726;27;951;-68
2022/11/04 01:01:51;;;;;;;;;;;;;;;;;;355690;27;785;-68
2022/11/04 01:02:01;;;;;;;;;;;;;;;;;;355765;27;863;-68
2022/11/04 01:02:12;;;;;;;;;;;;;;;;;;355741;27;812;-69
2022/11/04 01:02:22;;;;;;;;;;;;;;;;;;355592;27;1038;-69
2022/11/04 01:02:33;;;;;;;;;;;;;;;;;;355733;27;879;-68
2022/11/04 01:02:43;;;;;;;;;;;;;;;;;;355504;27;1063;-69
2022/11/04 01:02:54;;;;;;;;;;;;;;;;;;355685;27;979;-68
2022/11/04 01:03:04;;;;;;;;;;;;;;;;;;355702;27;939;-69
2022/11/04 01:03:14;;;;;;;;;;;;;;;;;;355674;27;1383;-68
2022/11/04 01:03:25;;;;;;;;;;;;;;;;;;355717;27;912;-69
2022/11/04 01:03:35;;;;;;;;;;;;;;;;;;355715;27;784;-68
2022/11/04 01:03:46;;;;;;;;;;;;;;;;;;355748;27;935;-69
2022/11/04 01:03:57;;;;;;;;;;;;;;;;;;355729;27;1093;-68
2022/11/04 01:04:08;;;;;;;;;;;;;;;;;;355719;27;927;-68
2022/11/04 01:04:18;;;;;;;;;;;;;;;;;;354495;27;1747;-68
2022/11/04 01:04:28;;;;;;;;;;;;;;;;;;354281;27;1364;-69
2022/11/04 01:04:39;;;;;;;;;;;;;;;;;;354222;27;975;-69
2022/11/04 01:04:49;;;;;;;;;;;;;;;;;;354322;27;951;-69
2022/11/04 01:04:59;;;;;;;;;;;;;;;;;;354240;27;955;-68
2022/11/04 01:05:09;;;;;;;;;;;;;;;;;;354310;27;979;-69
2022/11/04 01:05:20;;;;;;;;;;;;;;;;;;354250;27;963;-69
2022/11/04 01:05:30;;;;;;;;;;;;;;;;;;354285;27;916;-68
2022/11/04 01:05:40;;;;;;;;;;;;;;;;;;354288;27;800;-68
2022/11/04 01:05:50;;;;;;;;;;;;;;;;;;354223;27;1961;-68
2022/11/04 01:06:00;;;;;;;;;;;;;;;;;;354335;27;967;-68
2022/11/04 01:06:11;;;;;;;;;;;;;;;;;;354304;27;893;-68
2022/11/04 01:06:22;;;;;;;;;;;;;;;;;;354240;27;1028;-68
2022/11/04 01:06:32;;;;;;;;;;;;;;;;;;354244;27;924;-68
2022/11/04 01:06:42;;;;;;;;;;;;;;;;;;354288;27;987;-69
2022/11/04 01:06:52;;;;;;;;;;;;;;;;;;354286;27;837;-68
2022/11/04 01:07:02;;;;;;;;;;;;;;;;;;354312;27;916;-69
2022/11/04 01:07:12;;;;;;;;;;;;;;;;;;354298;27;1023;-68
2022/11/04 01:07:23;;;;;;;;;;;;;;;;;;354246;27;841;-68
2022/11/04 01:07:33;;;;;;;;;;;;;;;;;;354307;27;967;-68
2022/11/04 01:07:43;;;;;;;;;;;;;;;;;;354274;27;916;-68
2022/11/04 01:07:53;;;;;;;;;;;;;;;;;;354304;27;911;-68
2022/11/04 01:08:03;;;;;;;;;;;;;;;;;;354310;27;967;-68
2022/11/04 01:08:14;;;;;;;;;;;;;;;;;;354288;27;808;-68
2022/11/04 01:08:24;;;;;;;;;;;;;;;;;;354253;27;920;-69
2022/11/04 01:08:34;;;;;;;;;;;;;;;;;;354327;27;859;-68
2022/11/04 01:08:45;;;;;;;;;;;;;;;;;;354228;27;931;-68
2022/11/04 01:08:58;;;;;;;;;;;;;;;;;;354287;27;960;-68
2022/11/04 01:09:10;;;;;;;;;;;;;;;;;;354261;27;982;-69
2022/11/04 01:09:20;;;;;;;;;;;;;;;;;;354305;27;949;-68
2022/11/04 01:09:31;;;;;;;;;;;;;;;;;;354304;27;766;-68
2022/11/04 01:09:41;;;;;;;;;;;;;;;;;;354278;27;960;-68
2022/11/04 01:09:51;;;;;;;;;;;;;;;;;;354325;27;1079;-68
2022/11/04 01:10:01;;;;;;;;;;;;;;;;;;354237;27;952;-69
2022/11/04 01:10:12;;;;;;;;;;;;;;;;;;354382;27;841;-68
2022/11/04 01:10:22;;;;;;;;;;;;;;;;;;354038;27;1494;-68
2022/11/04 01:10:33;;;;;;;;;;;;;;;;;;354208;27;1319;-68
2022/11/04 01:10:44;;;;;;;;;;;;;;;;;;354251;27;960;-68
2022/11/04 01:10:54;;;;;;;;;;;;;;;;;;354248;27;793;-68
2022/11/04 01:11:05;;;;;;;;;;;;;;;;;;354309;27;939;-69
2022/11/04 01:11:15;;;;;;;;;;;;;;;;;;353942;27;1130;-68
2022/11/04 01:11:28;;;;;;;;;;;;;;;;;;352782;28;888;-68
2022/11/04 01:11:38;;;;;;;;;;;;;;;;;;352769;28;995;-68
2022/11/04 01:11:48;;;;;;;;;;;;;;;;;;352747;28;917;-68
2022/11/04 01:11:59;;;;;;;;;;;;;;;;;;352809;28;856;-68
2022/11/04 01:12:09;;;;;;;;;;;;;;;;;;352793;28;936;-69
2022/11/04 01:12:19;;;;;;;;;;;;;;;;;;352785;28;1027;-68
2022/11/04 01:12:29;;;;;;;;;;;;;;;;;;353298;27;1312;-68
2022/11/04 01:12:39;;;;;;;;;;;;;;;;;;354131;27;928;-68
2022/11/04 01:12:50;;;;;;;;;;;;;;;;;;354180;27;935;-68
2022/11/04 01:13:01;;;;;;;;;;;;;;;;;;354214;27;860;-69
2022/11/04 01:13:11;;;;;;;;;;;;;;;;;;354152;27;956;-69
2022/11/04 01:13:22;;;;;;;;;;;;;;;;;;355019;27;864;-69
2022/11/04 01:13:33;;;;;;;;;;;;;;;;;;355693;27;813;-68
2022/11/04 01:13:43;;;;;;;;;;;;;;;;;;354829;27;1497;-69
2022/11/04 01:13:54;;;;;;;;;;;;;;;;;;355735;27;852;-69
2022/11/04 01:14:05;;;;;;;;;;;;;;;;;;355712;27;900;-68
2022/11/04 01:14:15;;;;;;;;;;;;;;;;;;355674;27;837;-68
2022/11/04 01:14:25;;;;;;;;;;;;;;;;;;355680;27;967;-69
2022/11/04 01:14:36;;;;;;;;;;;;;;;;;;355705;27;813;-69
2022/11/04 01:14:48;;;;;;;;;;;;;;;;;;355662;27;861;-69
2022/11/04 01:14:59;;;;;;;;;;;;;;;;;;355683;27;808;-69
2022/11/04 01:15:09;;;;;;;;;;;;;;;;;;355712;27;773;-69
2022/11/04 01:15:22;;;;;;;;;;;;;;;;;;355676;27;891;-68
2022/11/04 01:15:32;;;;;;;;;;;;;;;;;;355691;27;785;-69
2022/11/04 01:15:43;;;;;;;;;;;;;;;;;;355698;27;840;-69
2022/11/04 01:15:53;;;;;;;;;;;;;;;;;;355711;27;923;-68
2022/11/04 01:16:06;;;;;;;;;;;;;;;;;;355698;27;856;-69
2022/11/04 01:16:16;;;;;;;;;;;;;;;;;;355675;27;797;-69
2022/11/04 01:16:27;;;;;;;;;;;;;;;;;;355696;27;908;-69
2022/11/04 01:16:38;;;;;;;;;;;;;;;;;;355703;27;816;-68
2022/11/04 01:16:49;;;;;;;;;;;;;;;;;;355725;27;935;-68
2022/11/04 01:16:59;;;;;;;;;;;;;;;;;;355660;27;848;-69
2022/11/04 01:17:10;;;;;;;;;;;;;;;;;;355669;27;783;-68
2022/11/04 01:17:20;;;;;;;;;;;;;;;;;;355685;27;967;-68
2022/11/04 01:17:30;;;;;;;;;;;;;;;;;;355720;27;847;-69
2022/11/04 01:17:41;;;;;;;;;;;;;;;;;;354104;27;1598;-68
2022/11/04 01:17:51;;;;;;;;;;;;;;;;;;354293;27;868;-69
2022/11/04 01:18:01;;;;;;;;;;;;;;;;;;354223;27;948;-69
2022/11/04 01:18:11;;;;;;;;;;;;;;;;;;354260;27;856;-68
2022/11/04 01:18:22;;;;;;;;;;;;;;;;;;354269;27;774;-68
2022/11/04 01:18:33;;;;;;;;;;;;;;;;;;354056;28;797;-68
2022/11/04 01:18:43;;;;;;;;;;;;;;;;;;354052;28;963;-68
2022/11/04 01:18:54;;;;;;;;;;;;;;;;;;353960;28;1131;-69
2022/11/04 01:19:04;;;;;;;;;;;;;;;;;;353992;28;813;-69
2022/11/04 01:19:15;;;;;;;;;;;;;;;;;;354129;27;861;-69
2022/11/04 01:19:25;;;;;;;;;;;;;;;;;;354321;27;910;-68
2022/11/04 01:19:36;;;;;;;;;;;;;;;;;;354695;27;1260;-69
2022/11/04 01:19:46;;;;;;;;;;;;;;;;;;355741;27;829;-68
2022/11/04 01:19:56;;;;;;;;;;;;;;;;;;355687;27;876;-68
2022/11/04 01:20:07;;;;;;;;;;;;;;;;;;355729;27;860;-69
2022/11/04 01:20:17;;;;;;;;;;;;;;;;;;355665;27;817;-69
2022/11/04 01:20:28;;;;;;;;;;;;;;;;;;355736;27;848;-69
2022/11/04 01:20:38;;;;;;;;;;;;;;;;;;355691;27;785;-69
2022/11/04 01:20:48;;;;;;;;;;;;;;;;;;355748;27;896;-69
2022/11/04 01:21:00;;;;;;;;;;;;;;;;;;354306;27;2010;-69
2022/11/04 01:21:12;;;;;;;;;;;;;;;;;;355674;27;797;-69
2022/11/04 01:21:22;;;;;;;;;;;;;;;;;;354376;27;802;-68
2022/11/04 01:21:32;;;;;;;;;;;;;;;;;;353750;27;1967;-69
2022/11/04 01:21:43;;;;;;;;;;;;;;;;;;354223;27;886;-69
2022/11/04 01:21:53;;;;;;;;;;;;;;;;;;354094;27;1273;-68
2022/11/04 01:22:04;;;;;;;;;;;;;;;;;;354291;27;797;-69
2022/11/04 01:22:14;;;;;;;;;;;;;;;;;;354261;27;762;-69
2022/11/04 01:22:24;;;;;;;;;;;;;;;;;;354070;27;2014;-69
2022/11/04 01:22:34;;;;;;;;;;;;;;;;;;353575;27;1520;-69
2022/11/04 01:22:45;;;;;;;;;;;;;;;;;;354943;27;967;-68
2022/11/04 01:22:55;;;;;;;;;;;;;;;;;;353905;27;2034;-68
2022/11/04 01:23:05;;;;;;;;;;;;;;;;;;354270;27;1575;-69
2022/11/04 01:23:16;;;;;;;;;;;;;;;;;;354169;27;896;-69
2022/11/04 01:23:26;;;;;;;;;;;;;;;;;;354290;27;1091;-69
2022/11/04 01:23:36;;;;;;;;;;;;;;;;;;353758;27;1991;-68
2022/11/04 01:23:46;;;;;;;;;;;;;;;;;;354214;27;829;-69
2022/11/04 01:23:58;;;;;;;;;;;;;;;;;;354284;27;785;-69
2022/11/04 01:24:08;;;;;;;;;;;;;;;;;;354289;27;769;-68
2022/11/04 01:24:18;;;;;;;;;;;;;;;;;;354277;27;932;-69
2022/11/04 01:24:29;;;;;;;;;;;;;;;;;;353712;27;1976;-68
2022/11/04 01:24:39;;;;;;;;;;;;;;;;;;353836;27;1789;-69
2022/11/04 01:24:49;;;;;;;;;;;;;;;;;;355641;27;1003;-68
2022/11/04 01:24:59;;;;;;;;;;;;;;;;;;353865;27;1517;-68
2022/11/04 01:25:09;;;;;;;;;;;;;;;;;;354240;27;1177;-69
2022/11/04 01:25:20;;;;;;;;;;;;;;;;;;354190;27;955;-69
2022/11/04 01:25:30;;;;;;;;;;;;;;;;;;354290;27;765;-68
2022/11/04 01:25:40;;;;;;;;;;;;;;;;;;354296;27;986;-68
2022/11/04 01:25:50;;;;;;;;;;;;;;;;;;354188;27;904;-69
2022/11/04 01:26:03;;;;;;;;;;;;;;;;;;354259;27;919;-68
2022/11/04 01:26:14;;;;;;;;;;;;;;;;;;354322;27;840;-69
2022/11/04 01:26:25;;;;;;;;;;;;;;;;;;354321;27;840;-68
2022/11/04 01:26:35;;;;;;;;;;;;;;;;;;353380;27;2057;-69
2022/11/04 01:26:46;;;;;;;;;;;;;;;;;;354205;27;1016;-68
2022/11/04 01:26:56;;;;;;;;;;;;;;;;;;354224;27;1027;-68
2022/11/04 01:27:06;;;;;;;;;;;;;;;;;;354303;27;912;-69
2022/11/04 01:27:16;;;;;;;;;;;;;;;;;;354241;27;871;-69
2022/11/04 01:27:27;;;;;;;;;;;;;;;;;;354095;27;1137;-68
2022/11/04 01:27:37;;;;;;;;;;;;;;;;;;354303;27;801;-68
2022/11/04 01:27:47;;;;;;;;;;;;;;;;;;354316;27;987;-69
2022/11/04 01:27:57;;;;;;;;;;;;;;;;;;354224;27;873;-69
2022/11/04 01:28:08;;;;;;;;;;;;;;;;;;354298;27;965;-69
2022/11/04 01:28:18;;;;;;;;;;;;;;;;;;354306;27;964;-69
2022/11/04 01:28:28;;;;;;;;;;;;;;;;;;354293;27;916;-69
2022/11/04 01:28:38;;;;;;;;;;;;;;;;;;354268;27;860;-69
2022/11/04 01:28:50;;;;;;;;;;;;;;;;;;354208;27;920;-69
2022/11/04 01:29:00;;;;;;;;;;;;;;;;;;354293;27;920;-69
2022/11/04 01:29:10;;;;;;;;;;;;;;;;;;354290;27;908;-69
2022/11/04 01:29:20;;;;;;;;;;;;;;;;;;354233;27;1031;-68
2022/11/04 01:29:30;;;;;;;;;;;;;;;;;;354210;27;908;-68
2022/11/04 01:29:41;;;;;;;;;;;;;;;;;;354171;27;1007;-69
2022/11/04 01:29:51;;;;;;;;;;;;;;;;;;354234;27;920;-69
2022/11/04 01:30:01;;;;;;;;;;;;;;;;;;354227;27;1016;-69
2022/11/04 01:30:11;;;;;;;;;;;;;;;;;;354271;27;932;-68
2022/11/04 01:30:22;;;;;;;;;;;;;;;;;;354280;27;857;-68
2022/11/04 01:30:32;;;;;;;;;;;;;;;;;;354256;27;908;-69
2022/11/04 01:30:42;;;;;;;;;;;;;;;;;;354234;27;1114;-69
2022/11/04 01:30:52;;;;;;;;;;;;;;;;;;354215;27;959;-69
2022/11/04 01:31:06;;;;;;;;;;;;;;;;;;354259;27;900;-69
2022/11/04 01:31:20;;;;;;;;;;;;;;;;;;354230;27;932;-69
2022/11/04 01:31:30;;;;;;;;;;;;;;;;;;354211;27;1055;-69
2022/11/04 01:31:40;;;;;;;;;;;;;;;;;;354189;27;833;-69
2022/11/04 01:31:51;;;;;;;;;;;;;;;;;;354249;27;912;-69
2022/11/04 01:32:01;;;;;;;;;;;;;;;;;;354214;27;844;-69
2022/11/04 01:32:12;;;;;;;;;;;;;;;;;;354282;27;813;-69